createdAt,value
2023-01-17T00:01:47.738Z,96977.66
2023-01-17T00:04:32.811Z,96978.03
2023-01-17T00:07:17.667Z,96981.84
2023-01-17T00:09:53.009Z,96988.81
2023-01-17T00:12:24.559Z,96982.66
2023-01-17T00:14:53.254Z,96976.69
2023-01-17T00:17:19.886Z,96975.41
2023-01-17T00:20:04.676Z,96993.84
2023-01-17T00:22:50.519Z,96989.84
2023-01-17T00:25:44.200Z,96993.00
2023-01-17T00:28:35.439Z,96994.72
2023-01-17T00:31:02.839Z,97000.28
2023-01-17T00:33:29.640Z,96999.94
2023-01-17T00:35:57.450Z,96996.84
2023-01-17T00:38:27.031Z,97002.09
2023-01-17T00:40:53.553Z,97009.56
2023-01-17T00:43:41.899Z,96998.44
2023-01-17T00:46:27.196Z,97011.19
2023-01-17T00:49:11.949Z,97020.25
2023-01-17T00:51:57.280Z,97021.09
2023-01-17T00:54:42.022Z,97027.59
2023-01-17T00:57:26.903Z,97018.31
2023-01-17T01:00:11.550Z,97030.28
2023-01-17T01:02:57.534Z,97024.19
2023-01-17T01:05:42.779Z,97028.47
2023-01-17T01:08:47.992Z,97010.66
2023-01-17T01:11:38.394Z,97023.53
2023-01-17T01:14:24.674Z,97024.03
2023-01-17T01:17:09.509Z,97029.41
2023-01-17T01:19:54.175Z,97031.03
2023-01-17T01:22:38.848Z,97031.19
2023-01-17T01:25:24.100Z,97037.28
2023-01-17T01:28:08.959Z,97039.81
2023-01-17T01:30:53.779Z,97037.09
2023-01-17T01:33:20.350Z,97036.13
2023-01-17T01:35:51.343Z,97034.41
2023-01-17T01:38:19.326Z,97033.38
2023-01-17T01:40:56.164Z,97041.31
2023-01-17T01:43:43.246Z,97033.94
2023-01-17T01:46:13.733Z,97046.06
2023-01-17T01:49:06.097Z,97040.25
2023-01-17T01:51:43.637Z,97048.75
2023-01-17T01:54:24.360Z,97045.53
2023-01-17T01:56:53.994Z,97050.34
2023-01-17T01:59:22.528Z,97059.81
2023-01-17T02:01:51.436Z,97057.72
2023-01-17T02:04:19.489Z,97071.78
2023-01-17T02:06:49.138Z,97064.09
2023-01-17T02:09:17.809Z,97074.72
2023-01-17T02:11:45.916Z,97069.34
2023-01-17T02:14:20.652Z,97076.06
2023-01-17T02:17:05.428Z,97080.25
2023-01-17T02:19:43.867Z,97084.78
2023-01-17T02:22:34.776Z,97085.91
2023-01-17T02:25:01.123Z,97078.75
2023-01-17T02:27:37.181Z,97081.25
2023-01-17T02:30:24.748Z,97082.53
2023-01-17T02:33:03.085Z,97082.19
2023-01-17T02:35:51.217Z,97089.13
2023-01-17T02:39:02.639Z,97087.28
2023-01-17T02:41:42.755Z,97093.59
2023-01-17T02:44:10.989Z,97104.00
2023-01-17T02:46:46.573Z,97101.09
2023-01-17T02:49:14.465Z,97110.91
2023-01-17T02:51:59.008Z,97110.53
2023-01-17T02:54:37.538Z,97116.97
2023-01-17T02:57:42.451Z,97120.56
2023-01-17T03:00:17.440Z,97121.38
2023-01-17T03:03:35.115Z,97128.94
2023-01-17T03:06:11.903Z,97127.13
2023-01-17T03:08:41.512Z,97135.31
2023-01-17T03:11:09.736Z,97146.66
2023-01-17T03:13:36.711Z,97151.34
2023-01-17T03:16:08.313Z,97157.72
2023-01-17T03:18:34.850Z,97156.66
2023-01-17T03:21:01.316Z,97175.13
2023-01-17T03:23:27.712Z,97166.25
2023-01-17T03:25:54.144Z,97171.59
2023-01-17T03:28:20.545Z,97171.91
2023-01-17T03:30:47.071Z,97179.00
2023-01-17T03:33:17.065Z,97174.50
2023-01-17T03:35:45.211Z,97186.31
2023-01-17T03:38:11.865Z,97181.94
2023-01-17T03:40:38.268Z,97195.63
2023-01-17T03:43:04.718Z,97189.63
2023-01-17T03:45:31.199Z,97188.75
2023-01-17T03:47:58.980Z,97203.09
2023-01-17T03:50:25.913Z,97205.91
2023-01-17T03:52:52.378Z,97205.22
2023-01-17T03:55:18.856Z,97206.78
2023-01-17T03:57:45.244Z,97210.94
2023-01-17T04:00:12.306Z,97213.69
2023-01-17T04:02:38.782Z,97208.56
2023-01-17T04:05:05.533Z,97228.19
2023-01-17T04:07:31.942Z,97211.81
2023-01-17T04:09:58.334Z,97230.41
2023-01-17T04:12:24.746Z,97235.50
2023-01-17T04:14:51.134Z,97234.94
2023-01-17T04:17:19.839Z,97225.56
2023-01-17T04:19:46.601Z,97225.88
2023-01-17T04:22:13.006Z,97228.59
2023-01-17T04:24:39.390Z,97229.59
2023-01-17T04:27:05.885Z,97230.09
2023-01-17T04:29:32.566Z,97233.97
2023-01-17T04:31:58.967Z,97226.59
2023-01-17T04:34:25.499Z,97229.19
2023-01-17T04:36:51.882Z,97240.38
2023-01-17T04:39:18.363Z,97232.31
2023-01-17T04:41:44.806Z,97245.44
2023-01-17T04:44:11.222Z,97252.69
2023-01-17T04:46:37.596Z,97247.81
2023-01-17T04:49:04.002Z,97248.66
2023-01-17T04:51:30.412Z,97251.13
2023-01-17T04:53:56.888Z,97252.78
2023-01-17T04:56:23.297Z,97256.16
2023-01-17T04:58:49.706Z,97250.50
2023-01-17T05:01:16.193Z,97261.22
2023-01-17T05:03:42.715Z,97265.19
2023-01-17T05:06:09.181Z,97271.03
2023-01-17T05:08:35.718Z,97257.53
2023-01-17T05:11:02.130Z,97275.22
2023-01-17T05:13:28.558Z,97274.31
2023-01-17T05:15:57.492Z,97273.47
2023-01-17T05:18:24.729Z,97283.19
2023-01-17T05:20:51.115Z,97282.78
2023-01-17T05:23:17.614Z,97289.22
2023-01-17T05:25:44.331Z,97275.47
2023-01-17T05:28:12.508Z,97288.78
2023-01-17T05:30:39.207Z,97291.75
2023-01-17T05:33:05.670Z,97304.56
2023-01-17T05:35:35.509Z,97290.41
2023-01-17T05:38:02.359Z,97311.78
2023-01-17T05:40:31.243Z,97311.19
2023-01-17T05:42:59.800Z,97316.72
2023-01-17T05:45:27.880Z,97318.94
2023-01-17T05:47:55.843Z,97325.28
2023-01-17T05:50:25.193Z,97334.47
2023-01-17T05:52:54.357Z,97349.09
2023-01-17T05:55:21.801Z,97352.81
2023-01-17T05:57:48.431Z,97365.84
2023-01-17T06:00:16.840Z,97361.78
2023-01-17T06:02:44.165Z,97375.69
2023-01-17T06:05:11.189Z,97385.06
2023-01-17T06:07:38.463Z,97395.41
2023-01-17T06:10:05.567Z,97402.84
2023-01-17T06:12:32.403Z,97408.16
2023-01-17T06:14:58.907Z,97413.53
2023-01-17T06:17:25.405Z,97426.13
2023-01-17T06:19:51.829Z,97431.66
2023-01-17T06:22:18.295Z,97447.00
2023-01-17T06:24:44.679Z,97456.63
2023-01-17T06:27:11.243Z,97460.78
2023-01-17T06:29:37.699Z,97466.09
2023-01-17T06:32:04.613Z,97468.97
2023-01-17T06:34:31.406Z,97485.34
2023-01-17T06:36:57.996Z,97477.50
2023-01-17T06:39:24.611Z,97483.03
2023-01-17T06:41:51.007Z,97490.63
2023-01-17T06:44:17.551Z,97488.44
2023-01-17T06:46:45.033Z,97504.59
2023-01-17T06:49:11.537Z,97517.81
2023-01-17T06:51:37.994Z,97530.84
2023-01-17T06:54:04.603Z,97535.88
2023-01-17T06:56:32.253Z,97537.47
2023-01-17T06:58:58.708Z,97542.72
2023-01-17T07:01:25.438Z,97537.63
2023-01-17T07:03:52.549Z,97549.94
2023-01-17T07:06:19.620Z,97554.69
2023-01-17T07:08:47.445Z,97569.03
2023-01-17T07:11:13.871Z,97577.06
2023-01-17T07:13:40.835Z,97561.78
2023-01-17T07:16:08.128Z,97587.34
2023-01-17T07:18:34.982Z,97582.34
2023-01-17T07:21:01.477Z,97587.72
2023-01-17T07:23:27.923Z,97595.84
2023-01-17T07:25:56.407Z,97599.44
2023-01-17T07:28:23.139Z,97608.56
2023-01-17T07:30:50.074Z,97610.34
2023-01-17T07:33:18.124Z,97608.91
2023-01-17T07:35:45.362Z,97622.91
2023-01-17T07:38:17.143Z,97621.75
2023-01-17T07:40:44.381Z,97618.75
2023-01-17T07:43:14.221Z,97625.91
2023-01-17T07:45:45.605Z,97623.69
2023-01-17T07:48:12.634Z,97629.50
2023-01-17T07:50:39.157Z,97623.56
2023-01-17T07:53:05.877Z,97633.94
2023-01-17T07:55:32.502Z,97637.31
2023-01-17T07:57:58.927Z,97644.94
2023-01-17T08:00:27.501Z,97635.78
2023-01-17T08:02:58.706Z,97647.16
2023-01-17T08:05:26.001Z,97646.44
2023-01-17T08:07:52.789Z,97654.84
2023-01-17T08:10:19.753Z,97654.50
2023-01-17T08:12:50.381Z,97658.97
2023-01-17T08:15:17.906Z,97663.16
2023-01-17T08:17:49.659Z,97666.28
2023-01-17T08:20:16.634Z,97669.78
2023-01-17T08:22:43.073Z,97679.84
2023-01-17T08:25:09.644Z,97678.44
2023-01-17T08:27:36.403Z,97684.25
2023-01-17T08:30:03.096Z,97693.00
2023-01-17T08:32:29.503Z,97698.47
2023-01-17T08:34:57.124Z,97696.09
2023-01-17T08:37:23.740Z,97708.31
2023-01-17T08:39:51.101Z,97698.31
2023-01-17T08:42:17.984Z,97700.91
2023-01-17T08:44:44.468Z,97705.09
2023-01-17T08:47:10.955Z,97706.41
2023-01-17T08:49:37.359Z,97717.53
2023-01-17T08:52:05.164Z,97710.69
2023-01-17T08:54:31.820Z,97713.78
2023-01-17T08:56:58.326Z,97718.75
2023-01-17T08:59:24.806Z,97722.25
2023-01-17T09:01:52.532Z,97726.59
2023-01-17T09:04:19.325Z,97735.84
2023-01-17T09:06:48.134Z,97736.25
2023-01-17T09:09:16.903Z,97745.19
2023-01-17T09:11:43.388Z,97747.44
2023-01-17T09:14:12.695Z,97739.38
2023-01-17T09:16:39.187Z,97750.50
2023-01-17T09:19:05.618Z,97759.19
2023-01-17T09:21:32.038Z,97762.19
2023-01-17T09:23:58.480Z,97751.66
2023-01-17T09:26:27.708Z,97760.38
2023-01-17T09:28:55.059Z,97763.44
2023-01-17T09:31:23.248Z,97770.00
2023-01-17T09:33:51.408Z,97765.66
2023-01-17T09:36:17.829Z,97771.13
2023-01-17T09:38:44.653Z,97769.75
2023-01-17T09:41:44.372Z,97774.19
2023-01-17T09:44:22.880Z,97766.03
2023-01-17T09:46:52.112Z,97786.59
2023-01-17T09:49:42.179Z,97776.38
2023-01-17T09:52:21.081Z,97785.13
2023-01-17T09:54:49.017Z,97789.91
2023-01-17T09:57:42.987Z,97789.34
2023-01-17T10:00:15.728Z,97799.50
2023-01-17T10:03:20.008Z,97788.03
2023-01-17T10:06:06.709Z,97790.75
2023-01-17T10:08:43.663Z,97789.16
2023-01-17T10:11:20.160Z,97783.63
2023-01-17T10:13:53.578Z,97783.47
2023-01-17T10:16:55.383Z,97788.16
2023-01-17T10:19:31.567Z,97780.84
2023-01-17T10:22:10.160Z,97777.25
2023-01-17T10:25:08.942Z,97780.63
2023-01-17T10:27:39.732Z,97779.25
2023-01-17T10:30:26.647Z,97795.47
2023-01-17T10:32:56.433Z,97789.88
2023-01-17T10:35:29.405Z,97794.72
2023-01-17T10:37:58.452Z,97799.84
2023-01-17T10:41:18.260Z,97798.06
2023-01-17T10:44:10.518Z,97796.13
2023-01-17T10:46:46.869Z,97797.28
2023-01-17T10:49:18.822Z,97807.94
2023-01-17T10:51:52.429Z,97802.47
2023-01-17T10:54:35.980Z,97804.91
2023-01-17T10:57:02.436Z,97812.69
2023-01-17T10:59:33.492Z,97809.84
2023-01-17T11:02:06.820Z,97816.56
2023-01-17T11:04:39.897Z,97813.72
2023-01-17T11:07:26.512Z,97818.81
2023-01-17T11:09:55.225Z,97813.97
2023-01-17T11:12:30.207Z,97805.78
2023-01-17T11:15:10.359Z,97809.50
2023-01-17T11:18:02.019Z,97806.78
2023-01-17T11:20:35.002Z,97809.19
2023-01-17T11:23:07.402Z,97801.38
2023-01-17T11:25:34.853Z,97795.44
2023-01-17T11:28:08.259Z,97800.09
2023-01-17T11:30:34.808Z,97793.84
2023-01-17T11:33:04.244Z,97794.72
2023-01-17T11:35:34.089Z,97803.25
2023-01-17T11:38:21.307Z,97807.25
2023-01-17T11:40:49.359Z,97808.88
2023-01-17T11:43:22.752Z,97802.09
2023-01-17T11:46:18.223Z,97810.56
2023-01-17T11:48:50.095Z,97818.56
2023-01-17T11:51:24.786Z,97826.44
2023-01-17T11:53:54.164Z,97830.06
2023-01-17T11:56:35.740Z,97823.44
2023-01-17T11:59:34.628Z,97826.44
2023-01-17T12:02:37.551Z,97829.47
2023-01-17T12:05:15.179Z,97828.19
2023-01-17T12:07:47.822Z,97832.16
2023-01-17T12:10:26.169Z,97828.06
2023-01-17T12:13:39.313Z,97829.22
2023-01-17T12:16:33.089Z,97826.09
2023-01-17T12:19:25.061Z,97825.38
2023-01-17T12:22:21.445Z,97836.19
2023-01-17T12:25:07.365Z,97823.94
2023-01-17T12:27:52.567Z,97826.38
2023-01-17T12:30:49.633Z,97829.59
2023-01-17T12:33:23.528Z,97827.84
2023-01-17T12:35:53.008Z,97827.22
2023-01-17T12:38:35.697Z,97831.53
2023-01-17T12:41:18.115Z,97827.75
2023-01-17T12:43:45.735Z,97833.41
2023-01-17T12:46:31.667Z,97835.97
2023-01-17T12:49:24.340Z,97839.06
2023-01-17T12:51:59.475Z,97835.06
2023-01-17T12:54:34.163Z,97839.56
2023-01-17T12:57:13.889Z,97850.38
2023-01-17T12:59:49.908Z,97841.66
2023-01-17T13:02:31.372Z,97854.03
2023-01-17T13:05:07.195Z,97852.19
2023-01-17T13:07:49.901Z,97847.56
2023-01-17T13:10:35.421Z,97853.91
2023-01-17T13:13:16.548Z,97863.88
2023-01-17T13:15:43.543Z,97863.69
2023-01-17T13:18:23.091Z,97866.94
2023-01-17T13:21:14.546Z,97872.66
2023-01-17T13:24:03.224Z,97868.91
2023-01-17T13:26:36.398Z,97881.25
2023-01-17T13:29:19.589Z,97881.53
2023-01-17T13:32:05.985Z,97886.09
2023-01-17T13:34:50.820Z,97893.44
2023-01-17T13:37:39.236Z,97886.59
2023-01-17T13:40:18.715Z,97916.53
2023-01-17T13:42:56.069Z,97904.78
2023-01-17T13:45:37.478Z,97911.09
2023-01-17T13:48:12.995Z,97903.78
2023-01-17T13:50:47.265Z,97913.09
2023-01-17T13:53:29.040Z,97921.19
2023-01-17T13:56:00.032Z,97911.22
2023-01-17T13:58:48.627Z,97919.28
2023-01-17T14:01:15.684Z,97926.38
2023-01-17T14:03:54.338Z,97926.06
2023-01-17T14:06:36.213Z,97932.72
2023-01-17T14:09:26.547Z,97929.28
2023-01-17T14:12:11.293Z,97931.47
2023-01-17T14:14:40.930Z,97926.19
2023-01-17T14:17:16.376Z,97933.28
2023-01-17T14:19:52.153Z,97929.06
2023-01-17T14:22:18.520Z,97936.97
2023-01-17T14:25:12.103Z,97926.75
2023-01-17T14:27:47.308Z,97942.31
2023-01-17T14:30:16.792Z,97937.06
2023-01-17T14:33:04.631Z,97955.69
2023-01-17T14:35:40.233Z,97947.19
2023-01-17T14:38:20.171Z,97946.75
2023-01-17T14:40:54.440Z,97947.53
2023-01-17T14:43:23.497Z,97954.09
2023-01-17T14:45:57.931Z,97953.53
2023-01-17T14:48:24.918Z,97956.81
2023-01-17T14:50:58.525Z,97962.72
2023-01-17T14:53:28.018Z,97965.84
2023-01-17T14:55:57.646Z,97965.28
2023-01-17T14:58:27.247Z,97966.19
2023-01-17T15:01:07.066Z,97960.38
2023-01-17T15:04:01.528Z,97964.78
2023-01-17T15:06:35.472Z,97966.94
2023-01-17T15:09:09.295Z,97965.22
2023-01-17T15:11:36.854Z,97963.88
2023-01-17T15:14:05.907Z,97969.06
2023-01-17T15:16:35.414Z,97973.25
2023-01-17T15:19:09.337Z,97970.38
2023-01-17T15:21:42.526Z,97969.41
2023-01-17T15:24:16.650Z,97975.16
2023-01-17T15:26:43.862Z,97975.81
2023-01-17T15:29:23.669Z,97970.81
2023-01-17T15:31:50.972Z,97973.09
2023-01-17T15:34:27.140Z,97981.13
2023-01-17T15:36:57.271Z,97985.78
2023-01-17T15:39:30.096Z,97982.66
2023-01-17T15:41:59.375Z,97982.06
2023-01-17T15:44:47.646Z,97983.38
2023-01-17T15:47:35.415Z,97987.19
2023-01-17T15:50:31.912Z,97985.19
2023-01-17T15:53:02.821Z,97988.19
2023-01-17T15:55:38.048Z,97984.47
2023-01-17T15:58:21.132Z,97980.50
2023-01-17T16:00:47.871Z,97982.06
2023-01-17T16:03:25.439Z,97980.75
2023-01-17T16:05:57.864Z,97982.22
2023-01-17T16:08:28.240Z,97978.53
2023-01-17T16:11:01.794Z,97983.28
2023-01-17T16:13:33.353Z,97984.19
2023-01-17T16:16:21.048Z,98000.06
2023-01-17T16:18:48.950Z,97996.47
2023-01-17T16:21:27.179Z,98003.38
2023-01-17T16:23:54.213Z,98003.88
2023-01-17T16:26:21.118Z,98001.72
2023-01-17T16:28:48.287Z,98011.78
2023-01-17T16:31:15.717Z,98007.38
2023-01-17T16:33:42.458Z,98004.75
2023-01-17T16:36:16.356Z,98006.81
2023-01-17T16:38:44.991Z,98011.59
2023-01-17T16:41:11.604Z,98005.97
2023-01-17T16:43:38.128Z,98010.75
2023-01-17T16:46:04.989Z,98019.69
2023-01-17T16:48:31.460Z,98012.56
2023-01-17T16:50:59.253Z,98019.13
2023-01-17T16:53:28.029Z,98020.91
2023-01-17T16:55:57.436Z,98012.78
2023-01-17T16:58:24.344Z,98019.81
2023-01-17T17:00:50.796Z,98015.88
2023-01-17T17:03:19.759Z,98019.94
2023-01-17T17:05:55.389Z,98025.91
2023-01-17T17:08:22.304Z,98021.94
2023-01-17T17:10:48.704Z,98025.84
2023-01-17T17:13:15.156Z,98024.16
2023-01-17T17:15:45.844Z,98020.81
2023-01-17T17:18:17.295Z,98026.22
2023-01-17T17:20:45.072Z,98029.22
2023-01-17T17:23:11.605Z,98034.97
2023-01-17T17:25:38.173Z,98040.66
2023-01-17T17:28:06.292Z,98049.28
2023-01-17T17:30:33.289Z,98046.41
2023-01-17T17:32:59.777Z,98055.00
2023-01-17T17:35:26.755Z,98058.81
2023-01-17T17:37:53.486Z,98058.09
2023-01-17T17:40:20.159Z,98062.28
2023-01-17T17:42:46.628Z,98055.00
2023-01-17T17:45:13.134Z,98052.38
2023-01-17T17:47:39.621Z,98052.59
2023-01-17T17:50:06.547Z,98055.19
2023-01-17T17:52:32.947Z,98054.34
2023-01-17T17:54:59.521Z,98059.38
2023-01-17T17:57:26.225Z,98052.69
2023-01-17T17:59:55.947Z,98056.25
2023-01-17T18:02:22.429Z,98066.59
2023-01-17T18:04:48.892Z,98063.25
2023-01-17T18:07:15.374Z,98060.22
2023-01-17T18:09:41.893Z,98074.38
2023-01-17T18:12:08.366Z,98069.59
2023-01-17T18:14:34.873Z,98066.53
2023-01-17T18:17:01.410Z,98067.97
2023-01-17T18:19:27.905Z,98077.97
2023-01-17T18:21:54.484Z,98082.22
2023-01-17T18:24:22.932Z,98083.16
2023-01-17T18:26:51.328Z,98085.56
2023-01-17T18:29:19.575Z,98084.06
2023-01-17T18:31:47.213Z,98076.13
2023-01-17T18:34:24.386Z,98078.41
2023-01-17T18:36:51.598Z,98077.22
2023-01-17T18:39:24.545Z,98078.97
2023-01-17T18:41:51.537Z,98082.72
2023-01-17T18:44:21.750Z,98076.06
2023-01-17T18:46:50.085Z,98084.78
2023-01-17T18:49:18.979Z,98081.19
2023-01-17T18:51:50.948Z,98092.66
2023-01-17T18:54:19.230Z,98087.34
2023-01-17T18:56:45.969Z,98087.13
2023-01-17T18:59:13.696Z,98091.47
2023-01-17T19:01:43.736Z,98089.88
2023-01-17T19:04:11.542Z,98101.88
2023-01-17T19:06:40.699Z,98092.34
2023-01-17T19:09:08.817Z,98104.50
2023-01-17T19:11:36.616Z,98091.00
2023-01-17T19:14:03.612Z,98099.25
2023-01-17T19:16:34.709Z,98104.00
2023-01-17T19:19:04.750Z,98102.84
2023-01-17T19:21:31.609Z,98113.34
2023-01-17T19:23:58.661Z,98111.38
2023-01-17T19:26:27.183Z,98118.19
2023-01-17T19:29:03.531Z,98123.94
2023-01-17T19:31:31.579Z,98128.31
2023-01-17T19:33:59.596Z,98111.56
2023-01-17T19:36:36.534Z,98115.56
2023-01-17T19:39:07.590Z,98119.31
2023-01-17T19:41:35.890Z,98115.84
2023-01-17T19:44:09.629Z,98124.03
2023-01-17T19:46:36.951Z,98133.69
2023-01-17T19:49:06.858Z,98133.78
2023-01-17T19:51:33.531Z,98132.03
2023-01-17T19:54:01.374Z,98127.69
2023-01-17T19:56:28.683Z,98130.97
2023-01-17T19:58:57.198Z,98137.09
2023-01-17T20:01:27.948Z,98135.78
2023-01-17T20:03:57.378Z,98139.31
2023-01-17T20:06:26.910Z,98147.53
2023-01-17T20:08:53.373Z,98161.16
2023-01-17T20:11:23.188Z,98173.59
2023-01-17T20:13:54.215Z,98174.69
2023-01-17T20:16:21.294Z,98175.91
2023-01-17T20:18:47.999Z,98176.88
2023-01-17T20:21:22.679Z,98173.03
2023-01-17T20:23:50.521Z,98184.78
2023-01-17T20:26:20.047Z,98181.88
2023-01-17T20:28:48.803Z,98174.13
2023-01-17T20:31:17.931Z,98190.03
2023-01-17T20:33:46.875Z,98184.47
2023-01-17T20:36:15.595Z,98187.31
2023-01-17T20:38:46.302Z,98181.13
2023-01-17T20:41:21.531Z,98184.56
2023-01-17T20:43:59.221Z,98177.25
2023-01-17T20:46:28.354Z,98173.69
2023-01-17T20:48:57.667Z,98172.56
2023-01-17T20:51:26.536Z,98165.53
2023-01-17T20:53:58.159Z,98171.81
2023-01-17T20:56:25.328Z,98165.31
2023-01-17T20:58:55.160Z,98174.69
2023-01-17T21:01:22.608Z,98173.03
2023-01-17T21:03:51.583Z,98183.59
2023-01-17T21:06:19.633Z,98185.47
2023-01-17T21:08:47.032Z,98193.97
2023-01-17T21:11:16.021Z,98190.34
2023-01-17T21:13:43.349Z,98197.88
2023-01-17T21:16:12.649Z,98203.81
2023-01-17T21:18:39.046Z,98196.16
2023-01-17T21:21:08.340Z,98208.13
2023-01-17T21:23:36.138Z,98207.50
2023-01-17T21:26:03.199Z,98212.56
2023-01-17T21:28:32.879Z,98214.94
2023-01-17T21:30:59.862Z,98216.44
2023-01-17T21:33:29.312Z,98228.38
2023-01-17T21:36:05.227Z,98232.97
2023-01-17T21:38:32.784Z,98233.84
2023-01-17T21:40:59.243Z,98244.25
2023-01-17T21:43:25.653Z,98236.56
2023-01-17T21:45:52.339Z,98244.44
2023-01-17T21:48:18.893Z,98240.63
2023-01-17T21:50:45.308Z,98245.09
2023-01-17T21:53:11.760Z,98256.00
2023-01-17T21:55:56.949Z,98260.19
2023-01-17T21:58:41.731Z,98260.94
2023-01-17T22:01:17.736Z,98263.47
2023-01-17T22:03:58.658Z,98264.59
2023-01-17T22:06:28.323Z,98274.41
2023-01-17T22:08:55.199Z,98269.63
2023-01-17T22:11:24.451Z,98268.50
2023-01-17T22:13:51.451Z,98267.53
2023-01-17T22:16:20.904Z,98268.47
2023-01-17T22:18:47.895Z,98271.88
2023-01-17T22:21:26.157Z,98272.81
2023-01-17T22:23:57.664Z,98269.53
2023-01-17T22:26:26.963Z,98282.72
2023-01-17T22:28:54.096Z,98283.47
2023-01-17T22:31:23.414Z,98295.50
2023-01-17T22:34:07.955Z,98289.28
2023-01-17T22:36:35.002Z,98291.59
2023-01-17T22:39:01.878Z,98298.75
2023-01-17T22:41:34.641Z,98298.66
2023-01-17T22:44:08.477Z,98294.31
2023-01-17T22:46:39.542Z,98290.03
2023-01-17T22:49:08.271Z,98288.31
2023-01-17T22:51:35.143Z,98288.59
2023-01-17T22:54:01.806Z,98294.13
2023-01-17T22:56:32.949Z,98293.06
2023-01-17T22:59:03.498Z,98297.91
2023-01-17T23:01:32.655Z,98297.66
2023-01-17T23:04:01.870Z,98294.28
2023-01-17T23:06:34.037Z,98297.38
2023-01-17T23:09:03.665Z,98286.44
2023-01-17T23:11:43.795Z,98293.56
2023-01-17T23:14:11.835Z,98288.88
2023-01-17T23:17:06.205Z,98290.38
2023-01-17T23:19:36.141Z,98296.34
2023-01-17T23:22:17.557Z,98288.56
2023-01-17T23:24:53.045Z,98296.84
2023-01-17T23:27:47.800Z,98294.78
2023-01-17T23:30:18.639Z,98290.94
2023-01-17T23:32:50.747Z,98287.16
2023-01-17T23:35:18.891Z,98288.66
2023-01-17T23:38:04.325Z,98275.69
2023-01-17T23:40:32.262Z,98277.84
2023-01-17T23:43:17.356Z,98275.44
2023-01-17T23:45:43.963Z,98266.50
2023-01-17T23:48:10.690Z,98267.56
2023-01-17T23:50:42.531Z,98263.06
2023-01-17T23:53:09.833Z,98259.81
2023-01-17T23:55:42.597Z,98270.84
2023-01-17T23:58:11.253Z,98271.72
